LSMM Airport Information

Runway Information
Runway 10 Length 6571 ft width 130 ft
Elevation 1885 ft Threshold 0 ft Heading 95
Runway 28 Length 6571 ft Width 130 ft
Elevation 1895 ft Threshold 0 ft Heading 275
Airport Frequencies
Type ARR Name ARR/DEP Frequency 37.012 MHZ
Type ARR Name ARR/DEP Frequency 138.275 MHZ
Type INFO Name INFO Frequency 138.05 MHZ
Type TWR Name TWR Frequency 130.15 MHZ
Airport Navaids
Airport Weather Information & NOTAM
ADDS - METARS form results

(1443 UTC 24 June 2018)
 
METAR text: LSMM 241350Z AUTO 05012KT 020V080 9999NDV FEW100 18/09 Q1019 RMK
Conditions at: LSMM (MEIRINGEN , CH) observed 1350 UTC 24 June 2018
Temperature: 18.0°C (64°F)
Dewpoint: 9.0°C (48°F) [RH = 56%]
Pressure (altimeter): 30.09 inches Hg (1019.0 mb)
Winds: from the NE (50 degrees) at 14 MPH (12 knots; 6.2 m/s)
Visibility: missing
Ceiling: at least 12,000 feet AGL
Clouds: few clouds at 10000 feet AGL
Weather: no significant weather observed at this time